sensor_id;sensor_type;location;lat;lon;timestamp;P1;P2;P0
53698;PMS7003;68408;53.952;27.612;2023-06-22T00:01:48;32.2;28.7;20.6
53698;PMS7003;68408;53.952;27.612;2023-06-22T00:06:46;34.3;29.2;20.4
53698;PMS7003;68408;53.952;27.612;2023-06-22T00:12:36;31.5;27.6;20
53698;PMS7003;68408;53.952;27.612;2023-06-22T00:17:37;32.1;27.8;20.3
53698;PMS7003;68408;53.952;27.612;2023-06-22T00:22:24;33.2;29.7;21.2
53698;PMS7003;68408;53.952;27.612;2023-06-22T00:27:36;33;28.3;20.6
53698;PMS7003;68408;53.952;27.612;2023-06-22T00:32:24;33.1;28.5;21
53698;PMS7003;68408;53.952;27.612;2023-06-22T00:37:04;32.9;28.6;21.3
53698;PMS7003;68408;53.952;27.612;2023-06-22T00:42:22;34.8;29.9;21.4
53698;PMS7003;68408;53.952;27.612;2023-06-22T00:47:37;32.6;29.3;21.1
53698;PMS7003;68408;53.952;27.612;2023-06-22T00:52:14;31.8;28.5;21.1
53698;PMS7003;68408;53.952;27.612;2023-06-22T00:56:56;33.1;29.4;21.6
53698;PMS7003;68408;53.952;27.612;2023-06-22T01:02:36;35.5;28.3;20.6
53698;PMS7003;68408;53.952;27.612;2023-06-22T01:07:05;33.6;28.6;20.9
53698;PMS7003;68408;53.952;27.612;2023-06-22T01:11:55;31.6;28.3;20.5
53698;PMS7003;68408;53.952;27.612;2023-06-22T01:17:00;33.8;28.9;20.4
53698;PMS7003;68408;53.952;27.612;2023-06-22T01:22:18;33;29.7;21.3
53698;PMS7003;68408;53.952;27.612;2023-06-22T01:27:22;33.1;28.9;20.6
53698;PMS7003;68408;53.952;27.612;2023-06-22T01:32:24;33.2;29;20.6
53698;PMS7003;68408;53.952;27.612;2023-06-22T01:37:14;33.3;29.7;21.4
53698;PMS7003;68408;53.952;27.612;2023-06-22T01:42:16;33.9;29.9;21.9
53698;PMS7003;68408;53.952;27.612;2023-06-22T01:46:46;34.3;29.5;21.8
53698;PMS7003;68408;53.952;27.612;2023-06-22T01:52:06;35.9;30.6;21.7
53698;PMS7003;68408;53.952;27.612;2023-06-22T01:57:08;34.1;29.6;21.6
53698;PMS7003;68408;53.952;27.612;2023-06-22T02:02:38;36.6;31.6;22.3
53698;PMS7003;68408;53.952;27.612;2023-06-22T02:07:39;34.3;29.3;20.4
53698;PMS7003;68408;53.952;27.612;2023-06-22T02:12:17;35.2;30.9;21.7
53698;PMS7003;68408;53.952;27.612;2023-06-22T02:16:46;37;31;22.1
53698;PMS7003;68408;53.952;27.612;2023-06-22T02:21:48;39.6;33;22.7
53698;PMS7003;68408;53.952;27.612;2023-06-22T02:27:16;40.3;32.2;22.7
53698;PMS7003;68408;53.952;27.612;2023-06-22T02:32:06;37;30.9;21.6
53698;PMS7003;68408;53.952;27.612;2023-06-22T02:37:16;37.5;31.5;22
53698;PMS7003;68408;53.952;27.612;2023-06-22T02:42:39;36.8;31.8;22.7
53698;PMS7003;68408;53.952;27.612;2023-06-22T02:46:56;36;31.1;22
53698;PMS7003;68408;53.952;27.612;2023-06-22T02:51:46;36.9;31.3;22.2
53698;PMS7003;68408;53.952;27.612;2023-06-22T02:57:38;35;30.2;21.6
53698;PMS7003;68408;53.952;27.612;2023-06-22T03:02:26;35.8;31.2;22.3
53698;PMS7003;68408;53.952;27.612;2023-06-22T03:07:08;38.7;32.8;23.6
53698;PMS7003;68408;53.952;27.612;2023-06-22T03:12:16;42.6;35.9;25.1
53698;PMS7003;68408;53.952;27.612;2023-06-22T03:17:06;41.9;34.8;24.2
53698;PMS7003;68408;53.952;27.612;2023-06-22T03:21:56;45.8;36.9;26
53698;PMS7003;68408;53.952;27.612;2023-06-22T03:26:58;37.7;32.8;23.4
53698;PMS7003;68408;53.952;27.612;2023-06-22T03:32:38;38.1;32.1;23.1
53698;PMS7003;68408;53.952;27.612;2023-06-22T03:37:28;34.7;30.2;22
53698;PMS7003;68408;53.952;27.612;2023-06-22T03:42:08;36.8;31.7;22.7
53698;PMS7003;68408;53.952;27.612;2023-06-22T03:47:14;35.9;31.4;22.5
53698;PMS7003;68408;53.952;27.612;2023-06-22T03:52:36;35.7;30.6;21.8
53698;PMS7003;68408;53.952;27.612;2023-06-22T03:56:56;33.3;30.1;22
53698;PMS7003;68408;53.952;27.612;2023-06-22T04:02:26;39.8;33.5;24.1
53698;PMS7003;68408;53.952;27.612;2023-06-22T04:07:16;37.9;32;23.5
53698;PMS7003;68408;53.952;27.612;2023-06-22T04:12:28;35.5;30.7;21.8
53698;PMS7003;68408;53.952;27.612;2023-06-22T04:17:36;34.6;30.6;22
53698;PMS7003;68408;53.952;27.612;2023-06-22T04:21:46;35.2;30.4;21.8
53698;PMS7003;68408;53.952;27.612;2023-06-22T04:26:56;32.7;29.5;21.7
53698;PMS7003;68408;53.952;27.612;2023-06-22T04:31:46;34.7;29.7;21.3
53698;PMS7003;68408;53.952;27.612;2023-06-22T04:37:36;33.4;29.3;21.3
53698;PMS7003;68408;53.952;27.612;2023-06-22T04:42:25;34.3;30.2;21.8
53698;PMS7003;68408;53.952;27.612;2023-06-22T04:47:28;39;32.5;23.4
53698;PMS7003;68408;53.952;27.612;2023-06-22T04:52:38;32.8;28.4;20.5
53698;PMS7003;68408;53.952;27.612;2023-06-22T04:57:24;29.6;26.5;19.3
53698;PMS7003;68408;53.952;27.612;2023-06-22T05:01:46;28.3;25.3;19.2
53698;PMS7003;68408;53.952;27.612;2023-06-22T05:06:54;27.7;24.7;18.2
53698;PMS7003;68408;53.952;27.612;2023-06-22T05:12:36;26.7;23.4;17.7
53698;PMS7003;68408;53.952;27.612;2023-06-22T05:17:36;23.2;21.1;16.5
53698;PMS7003;68408;53.952;27.612;2023-06-22T05:22:36;24.3;21.7;16.7
53698;PMS7003;68408;53.952;27.612;2023-06-22T05:27:36;29.1;25.8;19.2
53698;PMS7003;68408;53.952;27.612;2023-06-22T05:32:24;22;20.1;16.2
53698;PMS7003;68408;53.952;27.612;2023-06-22T05:36:56;21.4;18.7;14.1
53698;PMS7003;68408;53.952;27.612;2023-06-22T05:42:22;21.4;18.8;14.5
53698;PMS7003;68408;53.952;27.612;2023-06-22T05:47:34;22.2;19.9;15.2
53698;PMS7003;68408;53.952;27.612;2023-06-22T05:52:18;20;18.2;14.3
53698;PMS7003;68408;53.952;27.612;2023-06-22T05:57:08;20;18.2;14.8
53698;PMS7003;68408;53.952;27.612;2023-06-22T06:02:36;19.4;17.4;13.9
53698;PMS7003;68408;53.952;27.612;2023-06-22T06:06:58;18.7;17;13.5
53698;PMS7003;68408;53.952;27.612;2023-06-22T06:12:06;18;16.8;13.2
53698;PMS7003;68408;53.952;27.612;2023-06-22T06:17:04;19;17;13.2
53698;PMS7003;68408;53.952;27.612;2023-06-22T06:22:18;16.8;15.8;12.5
53698;PMS7003;68408;53.952;27.612;2023-06-22T06:27:18;17.8;16.2;12.8
53698;PMS7003;68408;53.952;27.612;2023-06-22T06:32:34;16.4;15;12.7
53698;PMS7003;68408;53.952;27.612;2023-06-22T06:36:46;16.6;14.9;11.8
53698;PMS7003;68408;53.952;27.612;2023-06-22T06:42:06;15.9;14.5;11.1
53698;PMS7003;68408;53.952;27.612;2023-06-22T06:46:46;16.4;14.4;10.9
53698;PMS7003;68408;53.952;27.612;2023-06-22T06:51:46;16.6;15.1;11.7
53698;PMS7003;68408;53.952;27.612;2023-06-22T06:57:06;14.3;12.6;9.9
53698;PMS7003;68408;53.952;27.612;2023-06-22T07:02:16;17.3;15.1;11.8
53698;PMS7003;68408;53.952;27.612;2023-06-22T07:07:34;15.2;14;11.3
53698;PMS7003;68408;53.952;27.612;2023-06-22T07:12:12;12.3;11.6;9.8
53698;PMS7003;68408;53.952;27.612;2023-06-22T07:17:02;15.4;14.4;12.3
53698;PMS7003;68408;53.952;27.612;2023-06-22T07:22:14;14.1;12.6;10.2
53698;PMS7003;68408;53.952;27.612;2023-06-22T07:27:04;14.8;12.9;10.6
53698;PMS7003;68408;53.952;27.612;2023-06-22T07:32:06;15;13.2;10.5
53698;PMS7003;68408;53.952;27.612;2023-06-22T07:37:12;16.7;15.1;11.9
53698;PMS7003;68408;53.952;27.612;2023-06-22T07:42:24;15.2;13.8;11.1
53698;PMS7003;68408;53.952;27.612;2023-06-22T07:46:46;15.8;14.1;11.1
53698;PMS7003;68408;53.952;27.612;2023-06-22T07:52:12;16.2;14.7;11.5
53698;PMS7003;68408;53.952;27.612;2023-06-22T07:57:36;16.2;14.4;11.7
53698;PMS7003;68408;53.952;27.612;2023-06-22T08:02:24;17.3;15.1;12.3
53698;PMS7003;68408;53.952;27.612;2023-06-22T08:07:06;14.5;13;10
53698;PMS7003;68408;53.952;27.612;2023-06-22T08:12:14;13.9;12.9;10.8
53698;PMS7003;68408;53.952;27.612;2023-06-22T08:17:36;15.5;13.8;11
53698;PMS7003;68408;53.952;27.612;2023-06-22T08:21:57;13.9;12.5;10.4
53698;PMS7003;68408;53.952;27.612;2023-06-22T08:27:06;14.9;13.6;10.8
53698;PMS7003;68408;53.952;27.612;2023-06-22T08:32:22;14.9;13.6;11.1
53698;PMS7003;68408;53.952;27.612;2023-06-22T08:37:24;16.2;13.7;11.5
53698;PMS7003;68408;53.952;27.612;2023-06-22T08:42:39;16.9;14.6;11.7
53698;PMS7003;68408;53.952;27.612;2023-06-22T08:47:14;17.3;15.4;12.4
53698;PMS7003;68408;53.952;27.612;2023-06-22T08:51:46;15.8;14.8;11.7
53698;PMS7003;68408;53.952;27.612;2023-06-22T08:56:46;17.4;16.1;12.8
53698;PMS7003;68408;53.952;27.612;2023-06-22T09:02:34;17;15.9;12.2
53698;PMS7003;68408;53.952;27.612;2023-06-22T09:07:22;15.8;14;10.8
53698;PMS7003;68408;53.952;27.612;2023-06-22T09:12:28;18.6;17.1;13.1
53698;PMS7003;68408;53.952;27.612;2023-06-22T09:17:36;14.4;13.1;11.1
53698;PMS7003;68408;53.952;27.612;2023-06-22T09:22:24;16.6;15.3;12
53698;PMS7003;68408;53.952;27.612;2023-06-22T09:26:56;16.1;14.9;12.2
53698;PMS7003;68408;53.952;27.612;2023-06-22T09:31:58;16.1;14.7;11.6
53698;PMS7003;68408;53.952;27.612;2023-06-22T09:37:36;15.8;14.8;11.7
53698;PMS7003;68408;53.952;27.612;2023-06-22T09:42:36;16.3;14.9;11.8
53698;PMS7003;68408;53.952;27.612;2023-06-22T09:47:36;14.3;12.6;10.3
53698;PMS7003;68408;53.952;27.612;2023-06-22T09:52:36;14.6;13.5;11.1
53698;PMS7003;68408;53.952;27.612;2023-06-22T09:57:24;14.3;13.9;11.5
53698;PMS7003;68408;53.952;27.612;2023-06-22T10:01:46;14.2;12.8;9.6
53698;PMS7003;68408;53.952;27.612;2023-06-22T10:07:24;15.5;14.3;11.5
53698;PMS7003;68408;53.952;27.612;2023-06-22T10:12:37;14.2;13;10.7
53698;PMS7003;68408;53.952;27.612;2023-06-22T10:17:14;13.6;12.7;10
53698;PMS7003;68408;53.952;27.612;2023-06-22T10:22:36;13.2;12.5;9.8
53698;PMS7003;68408;53.952;27.612;2023-06-22T10:27:36;14.4;12.8;10.3
53698;PMS7003;68408;53.952;27.612;2023-06-22T10:32:10;15.8;13.5;11
53698;PMS7003;68408;53.952;27.612;2023-06-22T10:37:06;13.6;12.7;10.3
53698;PMS7003;68408;53.952;27.612;2023-06-22T10:41:54;14.7;12.6;10.2
53698;PMS7003;68408;53.952;27.612;2023-06-22T10:47:20;13.6;12.3;10.1
53698;PMS7003;68408;53.952;27.612;2023-06-22T10:52:18;14.2;13.4;10.7
53698;PMS7003;68408;53.952;27.612;2023-06-22T10:57:24;15.5;13.8;11.4
53698;PMS7003;68408;53.952;27.612;2023-06-22T11:01:56;13.1;11.4;9.6
53698;PMS7003;68408;53.952;27.612;2023-06-22T11:06:47;13.4;12.4;9.5
53698;PMS7003;68408;53.952;27.612;2023-06-22T11:11:55;15.5;13.2;10.9
53698;PMS7003;68408;53.952;27.612;2023-06-22T11:16:46;14.6;13;10.5
53698;PMS7003;68408;53.952;27.612;2023-06-22T11:21:58;13.6;12.4;10
53698;PMS7003;68408;53.952;27.612;2023-06-22T11:27:18;13.7;12.2;10.1
53698;PMS7003;68408;53.952;27.612;2023-06-22T11:32:34;11.3;10.5;8.5
53698;PMS7003;68408;53.952;27.612;2023-06-22T11:37:12;11.8;10.6;9
53698;PMS7003;68408;53.952;27.612;2023-06-22T11:41:46;14.4;12.8;10.1
53698;PMS7003;68408;53.952;27.612;2023-06-22T11:47:36;13.8;11.6;9.5
53698;PMS7003;68408;53.952;27.612;2023-06-22T11:52:04;17.4;14.9;11.5
53698;PMS7003;68408;53.952;27.612;2023-06-22T11:57:08;17.9;15;11.4
53698;PMS7003;68408;53.952;27.612;2023-06-22T12:02:12;18;16.6;12.4
53698;PMS7003;68408;53.952;27.612;2023-06-22T12:07:24;16.1;13.9;10.7
53698;PMS7003;68408;53.952;27.612;2023-06-22T12:11:46;14.8;12.8;10.2
53698;PMS7003;68408;53.952;27.612;2023-06-22T12:16:54;16.2;14.2;10.9
53698;PMS7003;68408;53.952;27.612;2023-06-22T12:22:34;16.8;15.4;11.8
53698;PMS7003;68408;53.952;27.612;2023-06-22T12:27:24;18.4;16.4;12.8
53698;PMS7003;68408;53.952;27.612;2023-06-22T12:32:06;16.2;15.1;11.7
53698;PMS7003;68408;53.952;27.612;2023-06-22T12:37:02;18.6;16.4;12.9
53698;PMS7003;68408;53.952;27.612;2023-06-22T12:42:38;17.1;16;12.4
53698;PMS7003;68408;53.952;27.612;2023-06-22T12:46:46;19.6;17.4;13
53698;PMS7003;68408;53.952;27.612;2023-06-22T12:52:02;19.5;17.9;13.8
53698;PMS7003;68408;53.952;27.612;2023-06-22T12:57:14;19.8;17.7;13.6
53698;PMS7003;68408;53.952;27.612;2023-06-22T13:02:26;19.9;18.4;14.1
53698;PMS7003;68408;53.952;27.612;2023-06-22T13:07:38;20.2;19;14.3
53698;PMS7003;68408;53.952;27.612;2023-06-22T13:12:28;20.5;18.3;14.2
53698;PMS7003;68408;53.952;27.612;2023-06-22T13:16:46;21.1;18.8;14.6
53698;PMS7003;68408;53.952;27.612;2023-06-22T13:21:46;21.1;18.6;14.5
53698;PMS7003;68408;53.952;27.612;2023-06-22T13:27:16;21.7;19.4;14.9
53698;PMS7003;68408;53.952;27.612;2023-06-22T13:32:24;21;18.2;13.8
53698;PMS7003;68408;53.952;27.612;2023-06-22T13:37:28;18.3;16.8;13.1
53698;PMS7003;68408;53.952;27.612;2023-06-22T13:42:38;19.9;17.9;13.9
53698;PMS7003;68408;53.952;27.612;2023-06-22T13:47:22;19.2;16.8;12.9
53698;PMS7003;68408;53.952;27.612;2023-06-22T13:51:54;20.2;18.6;14.3
53698;PMS7003;68408;53.952;27.612;2023-06-22T13:56:54;18.8;15.9;12.8
53698;PMS7003;68408;53.952;27.612;2023-06-22T14:02:38;18.3;16.6;12.9
53698;PMS7003;68408;53.952;27.612;2023-06-22T14:07:34;18.1;16.2;12.4
53698;PMS7003;68408;53.952;27.612;2023-06-22T14:12:34;18;16.2;12.8
53698;PMS7003;68408;53.952;27.612;2023-06-22T14:17:26;19.8;17.3;13.2
53698;PMS7003;68408;53.952;27.612;2023-06-22T14:22:22;15.8;14.3;11.1
53698;PMS7003;68408;53.952;27.612;2023-06-22T14:27:18;16.4;14;10.9
53698;PMS7003;68408;53.952;27.612;2023-06-22T14:32:05;17.9;15.3;12.1
53698;PMS7003;68408;53.952;27.612;2023-06-22T14:37:38;14.8;13.4;10.9
53698;PMS7003;68408;53.952;27.612;2023-06-22T14:42:18;15.3;13.6;10.8
53698;PMS7003;68408;53.952;27.612;2023-06-22T14:47:07;14.3;13.3;10.5
53698;PMS7003;68408;53.952;27.612;2023-06-22T14:52:38;14.4;13;10.6
53698;PMS7003;68408;53.952;27.612;2023-06-22T14:56:56;14.3;12.4;9.6
53698;PMS7003;68408;53.952;27.612;2023-06-22T15:01:54;12.7;10.9;9.1
53698;PMS7003;68408;53.952;27.612;2023-06-22T15:06:46;11.2;10.1;8.1
53698;PMS7003;68408;53.952;27.612;2023-06-22T15:12:18;12.7;11.1;9
53698;PMS7003;68408;53.952;27.612;2023-06-22T15:17:18;13.2;11.5;9
53698;PMS7003;68408;53.952;27.612;2023-06-22T15:22:22;18.3;16;12.5
53698;PMS7003;68408;53.952;27.612;2023-06-22T15:27:38;17.3;16.3;12.7
53698;PMS7003;68408;53.952;27.612;2023-06-22T15:31:54;15.5;13.7;11
53698;PMS7003;68408;53.952;27.612;2023-06-22T15:36:54;15.6;14.3;11.1
53698;PMS7003;68408;53.952;27.612;2023-06-22T15:41:46;16.1;15.1;11.9
53698;PMS7003;68408;53.952;27.612;2023-06-22T15:47:06;14.5;12.8;10.2
53698;PMS7003;68408;53.952;27.612;2023-06-22T15:52:36;16.8;14.2;11.5
53698;PMS7003;68408;53.952;27.612;2023-06-22T15:57:38;16.9;14.5;11.8
53698;PMS7003;68408;53.952;27.612;2023-06-22T16:02:12;16.1;14.2;11.4
53698;PMS7003;68408;53.952;27.612;2023-06-22T16:06:56;14.6;13.7;10.8
53698;PMS7003;68408;53.952;27.612;2023-06-22T16:11:48;16.1;14.9;11.6
53698;PMS7003;68408;53.952;27.612;2023-06-22T16:17:05;15.8;14.2;10.8
53698;PMS7003;68408;53.952;27.612;2023-06-22T16:21:56;19;17.9;14
53698;PMS7003;68408;53.952;27.612;2023-06-22T16:27:24;18.7;16.1;12.6
53698;PMS7003;68408;53.952;27.612;2023-06-22T16:32:38;18.3;16.2;12.9
53698;PMS7003;68408;53.952;27.612;2023-06-22T16:36:54;17.6;15.7;12.6
53698;PMS7003;68408;53.952;27.612;2023-06-22T16:41:46;18.4;16.2;12
53698;PMS7003;68408;53.952;27.612;2023-06-22T16:47:38;18.9;17.2;13.3
53698;PMS7003;68408;53.952;27.612;2023-06-22T16:52:28;18.1;15.9;12.8
53698;PMS7003;68408;53.952;27.612;2023-06-22T16:57:08;16.4;14.7;11.8
53698;PMS7003;68408;53.952;27.612;2023-06-22T17:01:55;15.6;14.7;12
53698;PMS7003;68408;53.952;27.612;2023-06-22T17:07:39;17;14.8;11.6
53698;PMS7003;68408;53.952;27.612;2023-06-22T17:12:07;18.4;16.8;13
53698;PMS7003;68408;53.952;27.612;2023-06-22T17:17:11;17.5;16;12.6
53698;PMS7003;68408;53.952;27.612;2023-06-22T17:22:22;19.3;18.1;13.8
53698;PMS7003;68408;53.952;27.612;2023-06-22T17:27:27;20.3;18.6;14.3
53698;PMS7003;68408;53.952;27.612;2023-06-22T17:32:36;21.1;19;14
53698;PMS7003;68408;53.952;27.612;2023-06-22T17:36:47;18.9;17.1;12.8
53698;PMS7003;68408;53.952;27.612;2023-06-22T17:42:05;20.2;18.7;14.6
53698;PMS7003;68408;53.952;27.612;2023-06-22T17:46:55;20.7;18.7;14.2
53698;PMS7003;68408;53.952;27.612;2023-06-22T17:52:36;22;19.2;14.6
53698;PMS7003;68408;53.952;27.612;2023-06-22T17:57:24;22.3;20.7;15.5
53698;PMS7003;68408;53.952;27.612;2023-06-22T18:02:09;25.4;22.3;17
53698;PMS7003;68408;53.952;27.612;2023-06-22T18:07:35;21.9;19.8;15.1
53698;PMS7003;68408;53.952;27.612;2023-06-22T18:12:24;21.4;19.1;14.5
53698;PMS7003;68408;53.952;27.612;2023-06-22T18:17:05;23.7;20.7;15.2
53698;PMS7003;68408;53.952;27.612;2023-06-22T18:22:06;23.3;21.1;16.6
53698;PMS7003;68408;53.952;27.612;2023-06-22T18:27:35;28.3;25.3;18.5
53698;PMS7003;68408;53.952;27.612;2023-06-22T18:32:35;25.4;22.7;16.8
53698;PMS7003;68408;53.952;27.612;2023-06-22T18:37:35;24.9;21.9;15.8
53698;PMS7003;68408;53.952;27.612;2023-06-22T18:42:38;24.2;22.6;17.1
53698;PMS7003;68408;53.952;27.612;2023-06-22T18:47:26;26.5;24.4;18.2
53698;PMS7003;68408;53.952;27.612;2023-06-22T18:52:35;28.8;26.4;19.3
53698;PMS7003;68408;53.952;27.612;2023-06-22T18:57:23;28.9;25.9;19.1
53698;PMS7003;68408;53.952;27.612;2023-06-22T19:02:40;29.8;27.3;18.6
53698;PMS7003;68408;53.952;27.612;2023-06-22T19:07:15;30.9;27.6;19.5
53698;PMS7003;68408;53.952;27.612;2023-06-22T19:12:22;31.7;28.6;20.6
53698;PMS7003;68408;53.952;27.612;2023-06-22T19:17:35;35;30.5;21.7
53698;PMS7003;68408;53.952;27.612;2023-06-22T19:21:51;33.5;28.4;20.1
53698;PMS7003;68408;53.952;27.612;2023-06-22T19:26:55;34.5;29.7;20.1
53698;PMS7003;68408;53.952;27.612;2023-06-22T19:31:47;36;30.8;21.1
53698;PMS7003;68408;53.952;27.612;2023-06-22T19:37:17;34.7;30.3;21
53698;PMS7003;68408;53.952;27.612;2023-06-22T19:42:17;34.7;29.8;20.6
53698;PMS7003;68408;53.952;27.612;2023-06-22T19:47:23;35.2;30.9;22
53698;PMS7003;68408;53.952;27.612;2023-06-22T19:52:13;36.2;30.6;21.5
53698;PMS7003;68408;53.952;27.612;2023-06-22T19:56:55;34.2;29.1;19.9
53698;PMS7003;68408;53.952;27.612;2023-06-22T20:01:47;35.5;31;21.8
53698;PMS7003;68408;53.952;27.612;2023-06-22T20:07:33;37;31.5;21.9
53698;PMS7003;68408;53.952;27.612;2023-06-22T20:12:08;38;31.3;21.8
53698;PMS7003;68408;53.952;27.612;2023-06-22T20:17:09;37;31.6;22.5
53698;PMS7003;68408;53.952;27.612;2023-06-22T20:22:40;35.8;30.4;21
53698;PMS7003;68408;53.952;27.612;2023-06-22T20:27:13;35.7;30.5;21.4
53698;PMS7003;68408;53.952;27.612;2023-06-22T20:31:47;36.1;30.8;21.6
53698;PMS7003;68408;53.952;27.612;2023-06-22T20:37:01;35.2;31.1;21.8
53698;PMS7003;68408;53.952;27.612;2023-06-22T20:42:03;34.3;30;21.1
53698;PMS7003;68408;53.952;27.612;2023-06-22T20:47:07;36.6;31.8;22.3
53698;PMS7003;68408;53.952;27.612;2023-06-22T20:51:55;38.2;31.7;22.5
53698;PMS7003;68408;53.952;27.612;2023-06-22T20:57:25;43.2;35.6;24.2
53698;PMS7003;68408;53.952;27.612;2023-06-22T21:02:03;41.1;33.3;22.9
53698;PMS7003;68408;53.952;27.612;2023-06-22T21:07:13;37.6;32.3;22.5
53698;PMS7003;68408;53.952;27.612;2023-06-22T21:12:37;40.1;33.1;23.2
53698;PMS7003;68408;53.952;27.612;2023-06-22T21:17:27;41.6;33.6;23
53698;PMS7003;68408;53.952;27.612;2023-06-22T21:21:47;42.5;34.5;23.6
53698;PMS7003;68408;53.952;27.612;2023-06-22T21:27:13;41.1;34.3;23.6
53698;PMS7003;68408;53.952;27.612;2023-06-22T21:32:37;44;34.8;23.3
53698;PMS7003;68408;53.952;27.612;2023-06-22T21:36:47;38.7;32.8;22.9
53698;PMS7003;68408;53.952;27.612;2023-06-22T21:41:53;39.5;33;22.6
53698;PMS7003;68408;53.952;27.612;2023-06-22T21:47:15;36.2;31.5;21.8
53698;PMS7003;68408;53.952;27.612;2023-06-22T21:52:27;36.4;30.6;21.3
53698;PMS7003;68408;53.952;27.612;2023-06-22T21:57:37;36.4;31;21.6
53698;PMS7003;68408;53.952;27.612;2023-06-22T22:07:13;31.6;28.7;20.8
53698;PMS7003;68408;53.952;27.612;2023-06-22T22:11:55;31.9;28.1;20.6
53698;PMS7003;68408;53.952;27.612;2023-06-22T22:17:37;32.3;27.7;20.2
53698;PMS7003;68408;53.952;27.612;2023-06-22T22:22:21;34.6;29.2;20.7
53698;PMS7003;68408;53.952;27.612;2023-06-22T22:27:25;29.4;27;19.8
53698;PMS7003;68408;53.952;27.612;2023-06-22T22:32:35;32.6;28.8;20.5
53698;PMS7003;68408;53.952;27.612;2023-06-22T22:37:35;30.9;26.6;19.3
53698;PMS7003;68408;53.952;27.612;2023-06-22T22:42:37;30.2;26.5;19.6
53698;PMS7003;68408;53.952;27.612;2023-06-22T22:46:55;26.3;23.3;17.7
53698;PMS7003;68408;53.952;27.612;2023-06-22T22:52:37;30.6;26.8;19.5
53698;PMS7003;68408;53.952;27.612;2023-06-22T22:57:37;29.9;26.1;19.2
53698;PMS7003;68408;53.952;27.612;2023-06-22T23:02:37;29.4;26;18.7
53698;PMS7003;68408;53.952;27.612;2023-06-22T23:07:27;29.5;25.7;18.9
53698;PMS7003;68408;53.952;27.612;2023-06-22T23:12:21;28.5;25.2;18.5
53698;PMS7003;68408;53.952;27.612;2023-06-22T23:17:03;29.6;25.7;18.7
53698;PMS7003;68408;53.952;27.612;2023-06-22T23:22:23;28.4;25.7;18.7
53698;PMS7003;68408;53.952;27.612;2023-06-22T23:27:35;29.4;25.4;18.2
53698;PMS7003;68408;53.952;27.612;2023-06-22T23:31:57;26.8;23.1;17.9
53698;PMS7003;68408;53.952;27.612;2023-06-22T23:36:55;24.8;22.4;17.1
53698;PMS7003;68408;53.952;27.612;2023-06-22T23:42:35;25.4;23.4;17.4
53698;PMS7003;68408;53.952;27.612;2023-06-22T23:47:07;27.8;23.5;17.9
53698;PMS7003;68408;53.952;27.612;2023-06-22T23:52:03;24.9;22.3;16.8
53698;PMS7003;68408;53.952;27.612;2023-06-22T23:56:49;24.8;21.5;16.3
